createdAt,value
2018-12-09T00:01:07.174Z,6.51
2018-12-09T00:03:37.648Z,6.43
2018-12-09T00:06:08.129Z,6.38
2018-12-09T00:08:37.918Z,6.25
2018-12-09T00:11:09.427Z,6.17
2018-12-09T00:13:39.420Z,6.15
2018-12-09T00:16:10.590Z,6.06
2018-12-09T00:18:41.276Z,5.99
2018-12-09T00:21:11.279Z,5.91
2018-12-09T00:23:41.295Z,5.77
2018-12-09T00:26:13.067Z,5.81
2018-12-09T00:28:43.825Z,5.76
2018-12-09T00:31:13.495Z,5.74
2018-12-09T00:33:44.326Z,5.64
2018-12-09T00:36:15.468Z,5.61
2018-12-09T00:38:46.367Z,5.54
2018-12-09T00:41:16.501Z,5.46
2018-12-09T00:43:47.332Z,5.35
2018-12-09T00:46:18.215Z,5.29
2018-12-09T00:48:49.780Z,5.20
2018-12-09T00:51:19.677Z,5.15
2018-12-09T00:53:50.209Z,5.18
2018-12-09T00:56:20.770Z,5.23
2018-12-09T00:58:54.305Z,5.18
2018-12-09T01:01:25.355Z,5.11
2018-12-09T01:03:55.509Z,5.09
2018-12-09T01:06:26.573Z,5.08
2018-12-09T01:08:58.426Z,5.02
2018-12-09T01:11:28.566Z,5.11
2018-12-09T01:13:59.720Z,5.19
2018-12-09T01:16:29.636Z,5.28
2018-12-09T01:19:03.493Z,5.52
2018-12-09T01:21:33.616Z,5.72
2018-12-09T01:24:04.693Z,6.09
2018-12-09T01:26:35.326Z,6.24
2018-12-09T01:29:08.554Z,6.58
2018-12-09T01:31:38.537Z,6.51
2018-12-09T01:34:14.526Z,6.64
2018-12-09T01:36:44.619Z,6.63
2018-12-09T01:39:15.769Z,6.62
2018-12-09T01:41:47.769Z,6.47
2018-12-09T01:44:19.670Z,6.62
2018-12-09T01:46:50.675Z,6.54
2018-12-09T01:49:25.404Z,6.46
2018-12-09T01:52:01.560Z,6.42
2018-12-09T01:54:31.831Z,6.37
2018-12-09T01:57:03.550Z,6.45
2018-12-09T01:59:36.012Z,6.44
2018-12-09T02:02:09.456Z,6.46
2018-12-09T02:04:43.588Z,6.31
2018-12-09T02:07:14.772Z,6.29
2018-12-09T02:09:44.870Z,6.28
2018-12-09T02:12:16.883Z,6.39
2018-12-09T02:14:46.765Z,6.35
2018-12-09T02:17:16.797Z,6.38
2018-12-09T02:19:47.868Z,6.37
2018-12-09T02:22:18.900Z,6.34
2018-12-09T02:24:49.814Z,6.42
2018-12-09T02:27:19.802Z,6.38
2018-12-09T02:29:52.821Z,6.67
2018-12-09T02:32:26.769Z,6.69
2018-12-09T02:34:57.042Z,6.56
2018-12-09T02:37:28.444Z,6.43
2018-12-09T02:40:00.771Z,6.45
2018-12-09T02:42:33.785Z,6.45
2018-12-09T02:45:03.228Z,6.30
2018-12-09T02:47:34.000Z,6.24
2018-12-09T02:50:04.038Z,6.16
2018-12-09T02:52:35.021Z,6.10
2018-12-09T02:55:05.470Z,5.96
2018-12-09T02:57:35.406Z,5.87
2018-12-09T03:00:06.997Z,5.90
2018-12-09T03:02:37.278Z,5.87
2018-12-09T03:05:08.481Z,5.84
2018-12-09T03:07:39.025Z,5.85
2018-12-09T03:10:10.797Z,5.93
2018-12-09T03:12:42.057Z,6.03
2018-12-09T03:15:14.303Z,6.01
2018-12-09T03:17:45.193Z,6.05
2018-12-09T03:20:15.763Z,6.06
2018-12-09T03:22:46.497Z,6.14
2018-12-09T03:25:17.425Z,6.03
2018-12-09T03:27:47.759Z,6.01
2018-12-09T03:30:18.027Z,6.09
2018-12-09T03:32:48.110Z,6.11
2018-12-09T03:35:21.907Z,6.05
2018-12-09T03:37:53.083Z,5.99
2018-12-09T03:40:28.092Z,5.89
2018-12-09T03:43:06.079Z,5.80
2018-12-09T03:45:35.578Z,5.78
2018-12-09T03:48:05.219Z,5.78
2018-12-09T03:50:35.414Z,5.73
2018-12-09T03:53:06.515Z,5.68
2018-12-09T03:55:39.148Z,5.66
2018-12-09T03:58:16.260Z,5.66
2018-12-09T04:00:47.265Z,5.65
2018-12-09T04:03:18.440Z,5.62
2018-12-09T04:05:48.347Z,5.61
2018-12-09T04:08:19.409Z,5.56
2018-12-09T04:10:50.436Z,5.57
2018-12-09T04:13:21.388Z,5.57
2018-12-09T04:15:51.374Z,5.59
2018-12-09T04:18:22.309Z,5.66
2018-12-09T04:20:56.564Z,5.68
2018-12-09T04:23:28.169Z,5.70
2018-12-09T04:26:00.522Z,5.77
2018-12-09T04:28:32.227Z,5.69
2018-12-09T04:31:04.533Z,5.69
2018-12-09T04:33:35.630Z,5.76
2018-12-09T04:36:06.297Z,6.22
2018-12-09T04:38:35.676Z,6.21
2018-12-09T04:41:06.464Z,6.15
2018-12-09T04:43:38.627Z,6.53
2018-12-09T04:46:09.358Z,6.59
2018-12-09T04:48:39.498Z,6.54
2018-12-09T04:51:10.703Z,6.50
2018-12-09T04:53:41.574Z,6.41
2018-12-09T04:56:11.471Z,6.42
2018-12-09T04:58:51.285Z,6.45
2018-12-09T05:01:26.833Z,6.48
2018-12-09T05:03:56.796Z,6.68
2018-12-09T05:06:29.856Z,6.81
2018-12-09T05:09:04.748Z,6.75
2018-12-09T05:11:34.793Z,5.89
2018-12-09T05:14:05.661Z,7.16
2018-12-09T05:16:35.837Z,7.15
2018-12-09T05:19:06.704Z,7.28
2018-12-09T05:21:36.081Z,7.24
2018-12-09T05:24:05.655Z,7.16
2018-12-09T05:26:35.685Z,7.05
2018-12-09T05:29:06.797Z,7.12
2018-12-09T05:31:36.169Z,7.12
2018-12-09T05:34:05.763Z,7.09
2018-12-09T05:36:35.825Z,7.07
2018-12-09T05:39:07.875Z,6.93
2018-12-09T05:41:38.807Z,6.95
2018-12-09T05:44:11.052Z,6.93
2018-12-09T05:46:41.797Z,6.93
2018-12-09T05:49:13.210Z,6.83
2018-12-09T05:51:43.576Z,6.79
2018-12-09T05:54:19.488Z,6.78
2018-12-09T05:56:50.697Z,6.75
2018-12-09T05:59:21.795Z,6.69
2018-12-09T06:01:52.478Z,6.58
2018-12-09T06:04:22.667Z,6.58
2018-12-09T06:06:53.837Z,6.51
2018-12-09T06:09:24.959Z,6.48
2018-12-09T06:11:54.761Z,6.47
2018-12-09T06:14:27.669Z,6.50
2018-12-09T06:16:58.826Z,6.43
2018-12-09T06:19:29.710Z,6.36
2018-12-09T06:22:04.960Z,6.37
2018-12-09T06:24:34.796Z,6.33
2018-12-09T06:27:05.941Z,6.33
2018-12-09T06:29:35.745Z,6.40
2018-12-09T06:32:07.949Z,6.31
2018-12-09T06:34:38.992Z,6.30
2018-12-09T06:37:09.863Z,6.34
2018-12-09T06:39:41.980Z,6.32
2018-12-09T06:42:13.051Z,6.26
2018-12-09T06:44:43.620Z,6.24
2018-12-09T06:47:13.709Z,6.30
2018-12-09T06:49:47.999Z,6.29
2018-12-09T06:52:19.774Z,6.21
2018-12-09T06:54:55.050Z,6.20
2018-12-09T06:57:26.258Z,6.17
2018-12-09T06:59:58.177Z,6.11
2018-12-09T07:02:31.048Z,6.10
2018-12-09T07:05:07.649Z,6.12
2018-12-09T07:07:39.133Z,6.01
2018-12-09T07:10:10.826Z,6.10
2018-12-09T07:12:42.102Z,5.99
2018-12-09T07:15:13.487Z,5.95
2018-12-09T07:17:44.172Z,5.95
2018-12-09T07:20:15.063Z,6.02
2018-12-09T07:22:52.065Z,5.97
2018-12-09T07:25:22.109Z,6.08
2018-12-09T07:27:53.245Z,6.10
2018-12-09T07:30:24.211Z,6.15
2018-12-09T07:32:55.337Z,6.21
2018-12-09T07:35:25.360Z,6.15
2018-12-09T07:37:56.570Z,6.21
2018-12-09T07:40:29.301Z,6.24
2018-12-09T07:43:00.516Z,6.21
2018-12-09T07:45:31.364Z,6.17
2018-12-09T07:48:01.984Z,6.27
2018-12-09T07:50:32.665Z,6.31
2018-12-09T07:53:03.512Z,6.30
2018-12-09T07:55:33.893Z,6.20
2018-12-09T07:58:04.432Z,6.23
2018-12-09T08:00:36.093Z,6.21
2018-12-09T08:03:06.274Z,6.29
2018-12-09T08:05:35.701Z,6.21
2018-12-09T08:08:07.594Z,6.26
2018-12-09T08:10:38.304Z,6.28
2018-12-09T08:13:09.535Z,6.23
2018-12-09T08:15:39.957Z,6.22
2018-12-09T08:18:10.607Z,6.22
2018-12-09T08:20:41.577Z,6.27
2018-12-09T08:23:12.608Z,6.24
2018-12-09T08:25:42.429Z,6.19
2018-12-09T08:28:14.453Z,6.26
2018-12-09T08:30:45.245Z,6.24
2018-12-09T08:33:16.285Z,6.21
2018-12-09T08:35:47.201Z,6.17
2018-12-09T08:38:17.402Z,6.16
2018-12-09T08:41:02.621Z,6.16
2018-12-09T08:43:33.593Z,6.12
2018-12-09T08:46:04.418Z,6.12
2018-12-09T08:48:34.703Z,6.17
2018-12-09T08:51:05.726Z,6.13
2018-12-09T08:53:35.808Z,6.14
2018-12-09T08:56:06.713Z,6.12
2018-12-09T08:58:36.304Z,6.09
2018-12-09T09:01:07.837Z,6.09
2018-12-09T09:03:38.619Z,6.03
2018-12-09T09:06:09.570Z,6.05
2018-12-09T09:08:39.796Z,6.05
2018-12-09T09:11:10.767Z,5.95
2018-12-09T09:13:41.488Z,5.99
2018-12-09T09:16:12.129Z,5.88
2018-12-09T09:18:42.978Z,5.84
2018-12-09T09:21:13.859Z,5.78
2018-12-09T09:23:44.549Z,5.68
2018-12-09T09:26:15.528Z,5.72
2018-12-09T09:28:51.625Z,5.79
2018-12-09T09:31:22.748Z,5.78
2018-12-09T09:33:57.837Z,5.69
2018-12-09T09:36:29.984Z,5.68
2018-12-09T09:39:00.903Z,5.68
2018-12-09T09:41:34.170Z,5.62
2018-12-09T09:44:04.989Z,5.65
2018-12-09T09:46:35.946Z,5.61
2018-12-09T09:49:06.048Z,5.56
2018-12-09T09:51:35.417Z,5.61
2018-12-09T09:54:04.904Z,5.61
2018-12-09T09:56:36.026Z,5.61
2018-12-09T09:59:07.011Z,5.70
2018-12-09T10:01:36.487Z,5.55
2018-12-09T10:04:08.058Z,5.56
2018-12-09T10:06:39.826Z,5.46
2018-12-09T10:09:12.462Z,5.40
2018-12-09T10:11:42.060Z,5.30
2018-12-09T10:14:13.099Z,5.37
2018-12-09T10:16:44.597Z,5.40
2018-12-09T10:19:14.937Z,5.20
2018-12-09T10:21:45.017Z,5.31
2018-12-09T10:24:17.134Z,5.37
2018-12-09T10:26:47.729Z,5.40
2018-12-09T10:29:36.361Z,5.40
2018-12-09T10:32:07.028Z,5.37
2018-12-09T10:34:38.933Z,5.39
2018-12-09T10:37:09.248Z,5.44
2018-12-09T10:39:39.285Z,5.40
2018-12-09T10:42:10.180Z,5.45
2018-12-09T10:44:41.109Z,5.44
2018-12-09T10:47:11.171Z,5.35
2018-12-09T10:49:42.157Z,5.18
2018-12-09T10:52:13.365Z,5.30
2018-12-09T10:54:43.136Z,5.30
2018-12-09T10:57:14.268Z,5.11
2018-12-09T10:59:44.486Z,5.08
2018-12-09T11:02:18.911Z,5.02
2018-12-09T11:04:56.154Z,5.05
2018-12-09T11:07:28.521Z,5.11
2018-12-09T11:10:00.483Z,5.13
2018-12-09T11:12:30.292Z,5.19
2018-12-09T11:15:01.527Z,5.27
2018-12-09T11:17:31.255Z,5.24
2018-12-09T11:20:02.469Z,5.23
2018-12-09T11:22:33.412Z,5.15
2018-12-09T11:25:05.004Z,5.17
2018-12-09T11:27:35.392Z,5.15
2018-12-09T11:30:07.970Z,5.12
2018-12-09T11:32:37.387Z,5.15
2018-12-09T11:35:10.715Z,5.15
2018-12-09T11:37:41.384Z,5.12
2018-12-09T11:40:15.776Z,5.22
2018-12-09T11:42:51.221Z,5.29
2018-12-09T11:45:28.308Z,5.22
2018-12-09T11:47:59.507Z,5.12
2018-12-09T11:50:29.697Z,5.18
2018-12-09T11:53:01.739Z,5.19
2018-12-09T11:55:31.537Z,5.25
2018-12-09T11:58:02.613Z,5.11
2018-12-09T12:00:32.327Z,5.10
2018-12-09T12:03:09.474Z,5.11
2018-12-09T12:05:39.380Z,5.13
2018-12-09T12:08:10.494Z,5.18
2018-12-09T12:10:45.289Z,5.20
2018-12-09T12:13:17.725Z,5.15
2018-12-09T12:15:48.609Z,5.13
2018-12-09T12:18:22.272Z,5.13
2018-12-09T12:20:59.458Z,5.14
2018-12-09T12:23:30.689Z,5.14
2018-12-09T12:26:01.198Z,5.14
2018-12-09T12:28:31.835Z,5.17
2018-12-09T12:31:02.833Z,5.10
2018-12-09T12:33:33.693Z,5.13
2018-12-09T12:36:04.753Z,5.15
2018-12-09T12:38:34.753Z,5.19
2018-12-09T12:41:05.866Z,5.24
2018-12-09T12:43:39.623Z,5.21
2018-12-09T12:46:09.708Z,5.15
2018-12-09T12:48:39.756Z,5.15
2018-12-09T12:51:11.746Z,5.10
2018-12-09T12:53:45.038Z,5.17
2018-12-09T12:56:15.756Z,5.15
2018-12-09T12:58:45.874Z,5.08
2018-12-09T13:01:17.173Z,5.05
2018-12-09T13:03:48.096Z,4.99
2018-12-09T13:06:19.061Z,5.05
2018-12-09T13:08:48.746Z,5.06
2018-12-09T13:11:19.870Z,5.04
2018-12-09T13:13:50.104Z,5.05
2018-12-09T13:16:21.770Z,5.08
2018-12-09T13:18:58.721Z,5.07
2018-12-09T13:21:29.788Z,5.02
2018-12-09T13:24:03.818Z,5.01
2018-12-09T13:26:36.194Z,5.04
2018-12-09T13:29:08.875Z,4.98
2018-12-09T13:31:40.375Z,4.99
2018-12-09T13:34:09.905Z,5.02
2018-12-09T13:36:40.900Z,5.04
2018-12-09T13:39:12.168Z,4.96
2018-12-09T13:41:43.061Z,4.95
2018-12-09T13:44:14.074Z,4.94
2018-12-09T13:46:46.467Z,4.90
2018-12-09T13:49:17.577Z,4.99
2018-12-09T13:51:48.248Z,5.04
2018-12-09T13:54:18.957Z,4.94
2018-12-09T13:56:51.850Z,4.92
2018-12-09T13:59:23.521Z,4.90
2018-12-09T14:01:54.104Z,4.90
2018-12-09T14:04:24.981Z,4.88
2018-12-09T14:06:55.573Z,4.90
2018-12-09T14:09:26.022Z,4.80
2018-12-09T14:11:59.773Z,4.80
2018-12-09T14:14:30.324Z,4.87
2018-12-09T14:17:02.221Z,4.94
2018-12-09T14:19:33.277Z,5.06
2018-12-09T14:22:04.764Z,5.00
2018-12-09T14:24:34.206Z,5.12
2018-12-09T14:27:05.122Z,5.15
2018-12-09T14:29:36.320Z,5.20
2018-12-09T14:32:07.551Z,5.25
2018-12-09T14:34:36.989Z,5.28
2018-12-09T14:37:08.227Z,5.22
2018-12-09T14:39:40.313Z,5.21
2018-12-09T14:42:12.296Z,5.21
2018-12-09T14:44:43.273Z,5.19
2018-12-09T14:47:13.993Z,5.11
2018-12-09T14:49:49.008Z,5.12
2018-12-09T14:52:18.368Z,5.13
2018-12-09T14:54:48.205Z,5.16
2018-12-09T14:57:19.320Z,5.19
2018-12-09T14:59:50.813Z,5.13
2018-12-09T15:02:21.445Z,5.13
2018-12-09T15:04:52.450Z,5.11
2018-12-09T15:07:22.500Z,5.14
2018-12-09T15:09:53.609Z,5.15
2018-12-09T15:12:24.854Z,5.15
2018-12-09T15:14:54.266Z,5.19
2018-12-09T15:17:25.374Z,5.13
2018-12-09T15:19:56.282Z,5.13
2018-12-09T15:22:30.230Z,5.10
2018-12-09T15:25:01.301Z,5.13
2018-12-09T15:27:32.987Z,5.09
2018-12-09T15:30:02.510Z,5.03
2018-12-09T15:32:33.351Z,5.01
2018-12-09T15:35:03.630Z,5.01
2018-12-09T15:37:34.790Z,5.00
2018-12-09T15:40:05.051Z,4.99
2018-12-09T15:42:35.414Z,4.97
2018-12-09T15:45:07.607Z,4.88
2018-12-09T15:47:37.056Z,4.82
2018-12-09T15:50:09.535Z,4.84
2018-12-09T15:52:40.470Z,4.81
2018-12-09T15:55:12.212Z,4.82
2018-12-09T15:57:42.520Z,4.81
2018-12-09T16:00:12.520Z,4.80
2018-12-09T16:02:43.682Z,4.76
2018-12-09T16:05:14.786Z,4.71
2018-12-09T16:08:13.482Z,4.68
2018-12-09T16:10:43.287Z,4.66
2018-12-09T16:14:34.988Z,4.60
2018-12-09T16:17:06.298Z,4.56
2018-12-09T16:19:37.177Z,4.60
2018-12-09T16:22:07.296Z,4.58
2018-12-09T16:24:37.407Z,4.60
2018-12-09T16:27:10.492Z,4.62
2018-12-09T16:29:46.518Z,4.60
2018-12-09T16:32:22.359Z,4.65
2018-12-09T16:35:38.572Z,4.67
2018-12-09T16:38:09.285Z,4.67
2018-12-09T16:40:40.436Z,4.71
2018-12-09T16:43:19.258Z,4.71
2018-12-09T16:45:50.275Z,4.73
2018-12-09T16:48:21.594Z,4.71
2018-12-09T16:51:00.244Z,4.72
2018-12-09T16:53:31.608Z,4.68
2018-12-09T16:56:01.656Z,4.65
2018-12-09T16:58:33.489Z,4.69
2018-12-09T17:01:03.716Z,4.72
2018-12-09T17:03:35.431Z,4.78
2018-12-09T17:06:13.676Z,4.78
2018-12-09T17:08:44.568Z,4.71
2018-12-09T17:11:15.315Z,4.79
2018-12-09T17:13:46.213Z,4.80
2018-12-09T17:16:16.944Z,4.79
2018-12-09T17:18:47.749Z,4.80
2018-12-09T17:21:18.496Z,4.84
2018-12-09T17:23:55.484Z,4.81
2018-12-09T17:26:26.493Z,4.84
2018-12-09T17:28:56.633Z,4.86
2018-12-09T17:31:30.427Z,4.82
2018-12-09T17:34:01.621Z,4.74
2018-12-09T17:36:32.635Z,4.78
2018-12-09T17:39:04.593Z,4.73
2018-12-09T17:41:36.757Z,4.80
2018-12-09T17:44:10.805Z,4.75
2018-12-09T17:46:41.365Z,4.75
2018-12-09T17:49:11.605Z,4.78
2018-12-09T17:51:42.589Z,4.74
2018-12-09T17:54:12.910Z,4.79
2018-12-09T17:56:47.613Z,4.80
2018-12-09T17:59:17.816Z,4.80
2018-12-09T18:01:48.834Z,4.82
2018-12-09T18:04:27.552Z,4.85
2018-12-09T18:07:00.166Z,4.77
2018-12-09T18:09:32.696Z,4.68
2018-12-09T18:12:02.837Z,4.72
2018-12-09T18:14:36.628Z,4.74
2018-12-09T18:17:08.008Z,4.79
2018-12-09T18:19:38.108Z,4.77
2018-12-09T18:22:09.910Z,4.75
2018-12-09T18:24:44.257Z,4.77
2018-12-09T18:27:17.554Z,4.83
2018-12-09T18:29:51.576Z,4.84
2018-12-09T18:32:25.601Z,4.86
2018-12-09T18:34:56.582Z,4.79
2018-12-09T18:37:26.782Z,4.76
2018-12-09T18:39:57.113Z,4.84
2018-12-09T18:42:27.936Z,4.87
2018-12-09T18:44:58.497Z,4.83
2018-12-09T18:47:28.781Z,4.88
2018-12-09T18:49:59.816Z,4.90
2018-12-09T18:52:30.056Z,4.90
2018-12-09T18:55:04.224Z,4.87
2018-12-09T18:57:37.395Z,4.91
2018-12-09T19:00:09.089Z,4.90
2018-12-09T19:02:44.862Z,4.93
2018-12-09T19:05:18.916Z,4.88
2018-12-09T19:07:53.009Z,4.93
2018-12-09T19:10:26.001Z,4.99
2018-12-09T19:12:57.019Z,4.97
2018-12-09T19:15:28.996Z,4.93
2018-12-09T19:18:01.033Z,4.92
2018-12-09T19:20:32.189Z,4.88
2018-12-09T19:23:06.048Z,4.80
2018-12-09T19:25:37.304Z,4.83
2018-12-09T19:28:08.150Z,4.85
2018-12-09T19:30:48.189Z,4.85
2018-12-09T19:33:16.260Z,4.85
2018-12-09T19:35:48.694Z,4.83
2018-12-09T19:38:21.472Z,4.86
2018-12-09T19:40:59.676Z,4.83
2018-12-09T19:43:36.088Z,4.85
2018-12-09T19:46:07.406Z,4.81
2018-12-09T19:48:37.899Z,4.84
2018-12-09T19:51:08.478Z,4.88
2018-12-09T19:53:41.286Z,4.89
2018-12-09T19:56:17.220Z,4.87
2018-12-09T19:58:52.680Z,4.90
2018-12-09T20:01:26.063Z,4.83
2018-12-09T20:03:57.317Z,4.81
2018-12-09T20:06:27.500Z,4.88
2018-12-09T20:08:58.780Z,4.85
2018-12-09T20:11:29.724Z,4.92
2018-12-09T20:14:05.477Z,4.90
2018-12-09T20:16:40.514Z,4.87
2018-12-09T20:19:11.035Z,4.82
2018-12-09T20:21:45.901Z,4.76
2018-12-09T20:24:19.257Z,4.81
2018-12-09T20:26:49.307Z,4.77
2018-12-09T20:29:20.368Z,4.81
2018-12-09T20:31:50.392Z,4.80
2018-12-09T20:34:21.435Z,4.82
2018-12-09T20:36:52.453Z,4.83
2018-12-09T20:39:23.370Z,4.82
2018-12-09T20:41:53.498Z,4.80
2018-12-09T20:44:24.536Z,4.76
2018-12-09T20:46:54.584Z,4.81
2018-12-09T20:49:29.287Z,4.78
2018-12-09T20:51:59.497Z,4.81
2018-12-09T20:54:30.574Z,4.83
2018-12-09T20:57:03.644Z,4.83
2018-12-09T20:59:37.345Z,4.81
2018-12-09T21:02:12.153Z,4.81
2018-12-09T21:04:48.404Z,4.82
2018-12-09T21:07:19.333Z,4.76
2018-12-09T21:09:55.308Z,4.79
2018-12-09T21:12:26.236Z,4.71
2018-12-09T21:15:03.226Z,4.72
2018-12-09T21:17:33.733Z,4.76
2018-12-09T21:20:08.949Z,4.81
2018-12-09T21:22:43.931Z,4.82
2018-12-09T21:25:14.056Z,4.84
2018-12-09T21:27:44.119Z,4.88
2018-12-09T21:30:14.828Z,4.80
2018-12-09T21:32:46.570Z,4.78
2018-12-09T21:35:18.762Z,4.84
2018-12-09T21:37:49.464Z,4.91
2018-12-09T21:40:19.606Z,4.83
2018-12-09T21:42:49.637Z,4.88
2018-12-09T21:45:21.153Z,4.89
2018-12-09T21:47:51.916Z,4.91
2018-12-09T21:50:22.781Z,4.93
2018-12-09T21:52:52.821Z,4.95
2018-12-09T21:55:26.667Z,4.90
2018-12-09T21:57:57.880Z,4.95
2018-12-09T22:00:28.727Z,4.92
2018-12-09T22:02:59.773Z,4.92
2018-12-09T22:05:50.855Z,4.94
2018-12-09T22:08:27.964Z,4.96
2018-12-09T22:10:58.951Z,4.93
2018-12-09T22:13:28.971Z,4.94
2018-12-09T22:16:04.161Z,5.00
2018-12-09T22:18:36.876Z,5.01
2018-12-09T22:21:07.929Z,4.98
2018-12-09T22:23:38.009Z,5.07
2018-12-09T22:26:10.062Z,5.05
2018-12-09T22:28:40.998Z,5.02
2018-12-09T22:31:14.812Z,5.05
2018-12-09T22:33:46.948Z,5.11
2018-12-09T22:36:21.848Z,5.05
2018-12-09T22:38:52.591Z,5.06
2018-12-09T22:41:23.076Z,5.06
2018-12-09T22:43:53.464Z,5.07
2018-12-09T22:46:24.071Z,5.00
2018-12-09T22:48:54.247Z,4.99
2018-12-09T22:51:25.100Z,5.09
2018-12-09T22:53:55.420Z,5.13
2018-12-09T22:56:26.230Z,5.01
2018-12-09T22:58:56.725Z,5.12
2018-12-09T23:01:27.662Z,5.00
2018-12-09T23:03:57.985Z,5.00
2018-12-09T23:06:28.146Z,5.06
2018-12-09T23:08:58.972Z,5.01
2018-12-09T23:11:29.546Z,4.84
2018-12-09T23:14:00.262Z,4.89
2018-12-09T23:16:31.001Z,4.83
2018-12-09T23:19:01.272Z,4.81
2018-12-09T23:21:36.834Z,4.72
2018-12-09T23:24:09.942Z,4.68
2018-12-09T23:26:41.149Z,4.76
2018-12-09T23:29:13.353Z,4.72
2018-12-09T23:31:44.388Z,4.71
2018-12-09T23:34:17.306Z,4.63
2018-12-09T23:36:53.977Z,4.48
2018-12-09T23:39:25.521Z,4.50
2018-12-09T23:41:56.186Z,4.53
2018-12-09T23:44:26.272Z,4.45
2018-12-09T23:46:57.365Z,4.47
2018-12-09T23:49:33.289Z,4.55
2018-12-09T23:52:05.289Z,4.53
2018-12-09T23:54:36.852Z,4.49
2018-12-09T23:57:08.641Z,4.50
2018-12-09T23:59:41.348Z,4.43
